Time;durP1;ratioP1;P1;durP2;ratioP2;P2;SDS_P1;SDS_P2;PMS_P1;PMS_P2;Temp;Humidity;BMP_temperature;BMP_pressure;BME280_temperature;BME280_humidity;BME280_pressure;Samples;Min_cycle;Max_cycle;Signal;HPM_P1;HPM_P2
2022/04/29 04:01:07;;;;;;;17.27;12.97;;;;;;;;;;5660303;23;21090;-77
2022/04/29 04:03:32;;;;;;;17.47;10.80;;;1.90;96.30;;;;;;4975929;28;20412;-77
2022/04/29 04:08:42;;;;;;;13.57;10.40;;;;;;;;;;4975639;28;20185;-76
2022/04/29 04:11:08;;;;;;;13.87;10.23;;;2.20;96.30;;;;;;4975823;28;20422;-76
2022/04/29 04:13:33;;;;;;;12.63;9.30;;;;;;;;;;4954937;28;20584;-76
2022/04/29 04:15:59;;;;;;;11.60;9.57;;;;;;;;;;4975637;28;20268;-74
2022/04/29 04:18:25;;;;;;;14.00;10.43;;;;;;;;;;4962508;28;20246;-75
2022/04/29 04:36:44;;;;;;;12.37;10.17;;;;;;;;;;5834066;23;20498;-76
2022/04/29 04:39:09;;;;;;;9.97;8.93;;;5.90;96.30;;;;;;4955833;29;20415;-75
2022/04/29 04:41:35;;;;;;;13.10;9.40;;;;;;;;;;4938850;29;20219;-76
2022/04/29 04:44:00;;;;;;;12.63;9.53;;;6.40;96.30;;;;;;4941253;29;20183;-77
2022/04/29 04:46:26;;;;;;;14.40;9.43;;;6.40;96.30;;;;;;4936928;29;20178;-77
2022/04/29 04:48:51;;;;;;;11.80;8.20;;;6.70;96.30;;;;;;4919056;29;20536;-76
2022/04/29 04:51:17;;;;;;;9.43;7.83;;;6.60;96.30;;;;;;4940203;29;20199;-76
2022/04/29 04:53:43;;;;;;;9.93;8.63;;;;;;;;;;4948511;29;20202;-77
2022/04/29 04:56:08;;;;;;;8.97;7.77;;;6.20;96.30;;;;;;4938612;29;20194;-77
2022/04/29 04:58:34;;;;;;;12.03;8.70;;;;;;;;;;4937843;29;20568;-76
2022/04/29 05:01:01;;;;;;;12.83;8.10;;;;;;;;;;4938108;29;20262;-73
2022/04/29 05:03:26;;;;;;;17.80;8.90;;;5.40;96.30;;;;;;4938353;29;20929;-72
2022/04/29 05:05:52;;;;;;;10.40;7.53;;;5.20;96.30;;;;;;4955553;29;20419;-73
2022/04/29 05:08:17;;;;;;;11.97;8.50;;;5.00;96.30;;;;;;4954994;29;20186;-74
2022/04/29 05:10:43;;;;;;;12.20;9.07;;;;;;;;;;4955399;29;20191;-72
2022/04/29 05:13:09;;;;;;;17.80;8.60;;;;;;;;;;4955497;29;20181;-73
2022/04/29 05:15:36;;;;;;;10.27;7.97;;;4.70;96.30;;;;;;4955365;29;20848;-74
2022/04/29 05:18:02;;;;;;;18.00;8.77;;;;;;;;;;4955009;29;20178;-75
2022/04/29 05:20:28;;;;;;;14.30;8.83;;;4.90;96.30;;;;;;4938010;29;20465;-73
2022/04/29 05:22:54;;;;;;;9.50;8.30;;;;;;;;;;4938127;29;20418;-72
2022/04/29 05:25:20;;;;;;;10.43;9.10;;;;;;;;;;4954513;28;20178;-72
2022/04/29 05:27:45;;;;;;;11.90;9.00;;;5.20;96.30;;;;;;4952419;29;20418;-72
2022/04/29 05:30:12;;;;;;;11.30;9.00;;;6.30;96.30;;;;;;4935960;29;20567;-72
2022/04/29 05:32:38;;;;;;;11.10;8.40;;;;;;;;;;4950389;29;20183;-72
2022/04/29 05:35:05;;;;;;;11.50;8.90;;;8.70;96.30;;;;;;4955022;29;20438;-72
2022/04/29 05:37:31;;;;;;;13.23;7.50;;;10.00;96.30;;;;;;4954013;29;20792;-77
2022/04/29 05:42:41;;;;;;;14.60;7.93;;;11.30;96.30;;;;;;4941539;29;20426;-73
2022/04/29 05:45:08;;;;;;;9.63;6.80;;;12.40;96.30;;;;;;4935671;29;20823;-74
2022/04/29 05:47:33;;;;;;;13.60;7.20;;;12.50;96.30;;;;;;4936079;29;20175;-73
2022/04/29 05:49:59;;;;;;;11.13;7.33;;;12.40;96.30;;;;;;4954720;29;20399;-73
2022/04/29 05:52:26;;;;;;;7.37;6.67;;;;;;;;;;4936547;29;20246;-72
2022/04/29 05:54:52;;;;;;;10.40;6.53;;;;;;;;;;4944914;28;20203;-73
2022/04/29 05:57:18;;;;;;;10.90;7.23;;;;;;;;;;4951646;28;20427;-73
2022/04/29 05:59:44;;;;;;;11.77;7.47;;;;;;;;;;4941046;28;20172;-73
2022/04/29 06:02:09;;;;;;;10.50;6.70;;;12.90;96.30;;;;;;4941635;28;20461;-73
2022/04/29 06:04:35;;;;;;;9.13;6.67;;;14.40;94.40;;;;;;4954163;28;20415;-72
2022/04/29 06:07:01;;;;;;;7.77;5.63;;;;;;;;;;4953932;28;20175;-72
2022/04/29 06:09:26;;;;;;;10.20;6.73;;;15.80;88.80;;;;;;4967876;28;20209;-73
2022/04/29 06:11:52;;;;;;;7.80;6.30;;;16.10;88.00;;;;;;4958067;28;20469;-74
2022/04/29 06:14:18;;;;;;;9.73;5.47;;;15.60;88.10;;;;;;4952701;28;20238;-75
2022/04/29 06:16:45;;;;;;;8.03;5.77;;;;;;;;;;4949479;29;20261;-73
2022/04/29 06:19:11;;;;;;;11.63;6.67;;;13.10;96.00;;;;;;4953641;28;20182;-78
2022/04/29 06:21:38;;;;;;;9.40;6.50;;;;;;;;;;4953656;28;20466;-73
2022/04/29 06:24:04;;;;;;;8.80;6.47;;;11.80;96.30;;;;;;4954052;28;20203;-75
2022/04/29 06:26:30;;;;;;;7.90;6.30;;;11.80;96.30;;;;;;4961735;28;20497;-75
2022/04/29 06:28:56;;;;;;;8.97;6.43;;;;;;;;;;4961161;28;20837;-74
2022/04/29 06:31:21;;;;;;;7.97;6.43;;;11.80;96.30;;;;;;4953659;28;20206;-73
2022/04/29 06:33:47;;;;;;;7.87;6.27;;;12.40;96.30;;;;;;4954143;28;20469;-74
2022/04/29 06:36:12;;;;;;;12.63;6.83;;;12.60;96.30;;;;;;4949232;28;20190;-80
2022/04/29 06:38:38;;;;;;;8.83;6.67;;;12.60;96.30;;;;;;4946853;28;20202;-74
2022/04/29 06:41:03;;;;;;;8.47;6.77;;;12.90;96.30;;;;;;4954058;29;20221;-74
2022/04/29 06:43:30;;;;;;;13.03;8.07;;;13.50;96.30;;;;;;4952451;28;20675;-74
2022/04/29 06:45:55;;;;;;;10.77;9.33;;;14.50;96.20;;;;;;4931693;29;20187;-74
2022/04/29 06:48:21;;;;;;;9.83;7.80;;;14.90;93.00;;;;;;4953592;28;20466;-75
2022/04/29 06:50:46;;;;;;;10.77;7.10;;;15.70;91.50;;;;;;4948259;28;20452;-73
2022/04/29 06:53:12;;;;;;;8.00;6.53;;;16.70;90.60;;;;;;4948762;28;20199;-75
2022/04/29 06:55:38;;;;;;;10.33;6.30;;;17.00;88.60;;;;;;4946969;28;20218;-74
2022/04/29 06:58:06;;;;;;;9.03;6.40;;;17.50;86.40;;;;;;4948486;29;20183;-74
2022/04/29 07:00:32;;;;;;;9.53;6.30;;;18.10;86.60;;;;;;4953282;29;20997;-74
2022/04/29 07:03:01;;;;;;;7.87;5.70;;;;;;;;;;4947154;29;20427;-74
2022/04/29 07:05:28;;;;;;;13.77;6.37;;;18.60;84.20;;;;;;4952306;29;20413;-74
2022/04/29 07:07:53;;;;;;;14.90;6.67;;;18.50;85.10;;;;;;4934340;29;20415;-77
2022/04/29 07:10:19;;;;;;;7.40;5.50;;;18.60;84.20;;;;;;4934914;29;20446;-74
2022/04/29 07:12:46;;;;;;;7.80;6.30;;;19.00;84.30;;;;;;4934653;29;20187;-74
2022/04/29 07:15:15;;;;;;;8.10;7.10;;;19.70;82.20;;;;;;4939161;28;20271;-76
2022/04/29 07:17:42;;;;;;;13.60;6.80;;;19.90;81.00;;;;;;4936923;29;20508;-77
2022/04/29 07:20:09;;;;;;;7.40;6.20;;;20.00;82.30;;;;;;4945376;28;20882;-77
2022/04/29 07:22:38;;;;;;;7.50;6.20;;;20.50;82.20;;;;;;4953982;29;20425;-78
2022/04/29 07:25:05;;;;;;;12.50;7.10;;;21.40;79.40;;;;;;4953929;29;20428;-78
2022/04/29 07:27:32;;;;;;;11.30;5.50;;;;;;;;;;4953717;29;20483;-76
2022/04/29 07:29:58;;;;;;;11.23;5.83;;;;;;;;;;4948697;29;20898;-78
2022/04/29 07:32:25;;;;;;;10.10;5.77;;;21.30;73.60;;;;;;4940084;29;20518;-78
2022/04/29 07:43:07;;;;;;;8.07;4.50;;;21.50;73.50;;;;;;4938323;28;21031;-78
2022/04/29 07:45:36;;;;;;;6.87;4.37;;;;;;;;;;4937486;28;20422;-76
2022/04/29 07:48:03;;;;;;;6.17;3.90;;;21.90;67.50;;;;;;4939860;28;20855;-77
2022/04/29 07:50:30;;;;;;;6.40;4.20;;;;;;;;;;4940793;28;20477;-76
2022/04/29 07:53:00;;;;;;;8.77;5.03;;;22.10;73.50;;;;;;4945578;29;20426;-78
2022/04/29 07:55:25;;;;;;;8.17;3.97;;;21.10;71.60;;;;;;4942438;29;20923;-76
2022/04/29 07:57:51;;;;;;;4.87;3.70;;;19.90;69.80;;;;;;4937571;29;20410;-77
2022/04/29 08:00:17;;;;;;;5.57;3.60;;;20.40;71.20;;;;;;4939588;29;20191;-77
2022/04/29 08:02:43;;;;;;;6.87;3.80;;;;;;;;;;4957086;29;20198;-78
2022/04/29 08:05:09;;;;;;;8.17;3.87;;;19.80;69.90;;;;;;4946402;28;20977;-78
2022/04/29 08:07:35;;;;;;;6.40;4.27;;;;;;;;;;4940106;29;20430;-77
2022/04/29 08:10:01;;;;;;;6.10;3.83;;;;;;;;;;4940529;28;21288;-76
2022/04/29 08:12:27;;;;;;;10.13;3.70;;;22.50;65.60;;;;;;4940831;29;20210;-76
2022/04/29 08:14:53;;;;;;;4.03;3.60;;;22.50;64.40;;;;;;4954400;29;20187;-74
2022/04/29 08:17:19;;;;;;;11.13;4.10;;;22.50;68.30;;;;;;4939628;29;20189;-74
2022/04/29 08:19:45;;;;;;;8.73;3.70;;;22.20;66.40;;;;;;4956541;29;20509;-74
2022/04/29 08:22:11;;;;;;;11.03;4.27;;;21.80;70.60;;;;;;4942083;29;20943;-74
2022/04/29 08:24:37;;;;;;;7.40;4.20;;;21.80;68.30;;;;;;4939431;29;20258;-74
2022/04/29 08:27:03;;;;;;;5.10;4.23;;;22.10;68.80;;;;;;4956345;29;20225;-75
2022/04/29 08:29:28;;;;;;;4.97;4.30;;;22.30;65.10;;;;;;4956128;29;20179;-74
2022/04/29 08:31:54;;;;;;;6.53;4.37;;;;;;;;;;4956200;29;20851;-76
2022/04/29 08:34:20;;;;;;;6.37;4.27;;;;;;;;;;4938863;29;20340;-74
2022/04/29 08:36:46;;;;;;;8.03;5.50;;;;;;;;;;4951377;29;20215;-74
2022/04/29 08:39:12;;;;;;;9.07;5.10;;;19.90;75.70;;;;;;4936910;29;20506;-74
2022/04/29 08:41:39;;;;;;;13.93;5.00;;;21.10;68.70;;;;;;4936779;29;20278;-74
2022/04/29 08:44:08;;;;;;;9.30;5.77;;;20.60;67.70;;;;;;4937259;29;20204;-76
2022/04/29 08:46:34;;;;;;;9.07;4.67;;;20.90;69.10;;;;;;4936854;29;20429;-74
2022/04/29 08:49:01;;;;;;;7.27;5.20;;;21.70;67.90;;;;;;4936640;29;20432;-74
2022/04/29 08:51:27;;;;;;;7.70;4.40;;;;;;;;;;4937674;29;20885;-75
2022/04/29 08:53:53;;;;;;;8.03;5.10;;;20.50;73.30;;;;;;4941791;29;20908;-76
2022/04/29 08:59:03;;;;;;;9.10;5.00;;;19.20;73.60;;;;;;4951172;28;20676;-76
2022/04/29 09:01:30;;;;;;;7.40;5.10;;;19.20;74.90;;;;;;4955176;29;20466;-74
2022/04/29 09:03:55;;;;;;;5.70;3.60;;;19.60;74.20;;;;;;4954434;28;20185;-75
2022/04/29 09:06:22;;;;;;;6.80;4.27;;;;;;;;;;4939361;28;20423;-74
2022/04/29 09:08:48;;;;;;;7.37;4.50;;;;;;;;;;4938247;28;20211;-76
2022/04/29 09:11:24;;;;;;;11.73;4.50;;;;;;;;;;4939601;28;20449;-75
2022/04/29 09:13:50;;;;;;;9.90;4.60;;;18.60;74.90;;;;;;4940405;29;20834;-75
2022/04/29 09:16:16;;;;;;;8.97;4.23;;;;;;;;;;4939928;28;20438;-76
2022/04/29 09:18:49;;;;;;;7.67;4.77;;;;;;;;;;4939061;29;20198;-77
2022/04/29 09:21:22;;;;;;;9.73;4.50;;;18.20;72.20;;;;;;4943875;29;20215;-74
2022/04/29 09:23:56;;;;;;;8.87;4.10;;;;;;;;;;4942918;29;20466;-74
2022/04/29 09:26:30;;;;;;;8.50;4.80;;;19.40;71.50;;;;;;4934462;29;20418;-74
2022/04/29 09:29:10;;;;;;;6.53;4.80;;;19.10;71.80;;;;;;4941299;29;20478;-74
2022/04/29 09:31:53;;;;;;;10.63;4.40;;;19.00;73.50;;;;;;4949905;29;20434;-75
2022/04/29 09:34:19;;;;;;;6.17;4.20;;;19.10;75.10;;;;;;4951759;29;20832;-74
2022/04/29 09:36:45;;;;;;;6.63;4.37;;;18.90;74.50;;;;;;4935990;29;20443;-74
2022/04/29 09:41:56;;;;;;;9.23;5.23;;;18.20;74.40;;;;;;4935820;29;20274;-74
2022/04/29 09:44:35;;;;;;;8.00;4.73;;;18.70;76.60;;;;;;4935882;29;20408;-73
2022/04/29 09:47:15;;;;;;;7.10;5.07;;;19.40;79.60;;;;;;4926277;29;20525;-73
2022/04/29 09:49:50;;;;;;;12.40;5.70;;;18.20;77.10;;;;;;4954738;29;20774;-73
2022/04/29 09:52:18;;;;;;;6.00;4.20;;;;;;;;;;4954798;29;21036;-75
2022/04/29 09:54:44;;;;;;;6.57;4.10;;;;;;;;;;4954822;29;20415;-75
2022/04/29 09:57:11;;;;;;;8.47;4.87;;;;;;;;;;4954621;29;20410;-76
2022/04/29 09:59:41;;;;;;;8.47;4.10;;;17.80;78.20;;;;;;4954588;29;20179;-76
2022/04/29 10:02:09;;;;;;;7.83;5.00;;;17.90;80.10;;;;;;4954531;29;20486;-77
2022/04/29 10:04:38;;;;;;;7.20;4.97;;;17.90;82.70;;;;;;4954658;29;20419;-76
2022/04/29 10:07:05;;;;;;;13.20;6.50;;;17.80;80.90;;;;;;4954466;29;20414;-75
2022/04/29 10:09:32;;;;;;;9.67;5.03;;;;;;;;;;4954316;29;20974;-75
2022/04/29 10:12:00;;;;;;;4.87;4.33;;;17.20;77.00;;;;;;4954245;28;20517;-75
2022/04/29 10:14:28;;;;;;;6.00;4.20;;;16.90;79.10;;;;;;4954568;29;20516;-75
2022/04/29 10:22:29;;;;;;;11.77;4.70;;;;;;;;;;5765136;23;20476;-78
2022/04/29 10:24:56;;;;;;;8.00;4.70;;;17.10;77.30;;;;;;4939186;28;20434;-73
2022/04/29 10:27:21;;;;;;;6.13;5.03;;;17.30;80.30;;;;;;4954193;29;20423;-73
2022/04/29 10:29:48;;;;;;;14.20;4.53;;;;;;;;;;4954113;29;20410;-73
2022/04/29 10:32:13;;;;;;;9.67;4.80;;;17.40;77.00;;;;;;4954084;29;20203;-73
2022/04/29 10:34:39;;;;;;;5.17;4.60;;;17.40;77.40;;;;;;4954230;29;20492;-74
2022/04/29 10:37:11;;;;;;;7.73;4.80;;;17.00;78.40;;;;;;4953966;29;20198;-75
2022/04/29 10:39:37;;;;;;;8.30;4.50;;;;;;;;;;4949502;28;20191;-73
2022/04/29 10:42:11;;;;;;;9.23;4.47;;;17.30;82.10;;;;;;4917706;29;20474;-75
2022/04/29 10:45:00;;;;;;;16.60;5.53;;;17.50;79.10;;;;;;4917678;29;20430;-73
2022/04/29 10:47:40;;;;;;;6.13;4.80;;;17.30;76.70;;;;;;4934666;29;20408;-78
2022/04/29 10:50:25;;;;;;;5.60;4.63;;;;;;;;;;4934891;29;20403;-73
2022/04/29 10:53:01;;;;;;;7.30;4.90;;;17.20;81.90;;;;;;4934880;29;20467;-73
2022/04/29 10:55:26;;;;;;;8.90;4.60;;;17.70;86.80;;;;;;4934667;29;20419;-72
2022/04/29 10:57:52;;;;;;;8.37;5.10;;;17.70;82.30;;;;;;4934588;29;20921;-72
2022/04/29 11:00:22;;;;;;;14.43;5.30;;;;;;;;;;4929779;29;20667;-74
2022/04/29 11:02:47;;;;;;;5.70;5.03;;;18.10;85.50;;;;;;4924070;29;20695;-76
2022/04/29 11:05:36;;;;;;;11.87;5.70;;;18.20;83.70;;;;;;4953901;29;20505;-73
2022/04/29 11:08:09;;;;;;;11.70;4.57;;;18.30;84.80;;;;;;4953408;29;20707;-74
2022/04/29 11:10:53;;;;;;;8.47;4.60;;;18.30;81.70;;;;;;4954224;29;20848;-73
2022/04/29 11:13:22;;;;;;;8.30;4.73;;;;;;;;;;4953850;29;20422;-73
2022/04/29 11:15:48;;;;;;;8.63;4.77;;;19.50;82.70;;;;;;4936417;29;20789;-74
2022/04/29 11:18:14;;;;;;;6.10;4.30;;;19.50;76.30;;;;;;4953419;29;20418;-76
2022/04/29 11:20:43;;;;;;;8.30;4.47;;;19.00;74.20;;;;;;4939463;28;20210;-77
2022/04/29 11:25:57;;;;;;;5.43;4.93;;;;;;;;;;4934044;28;20446;-77
2022/04/29 11:28:24;;;;;;;9.87;4.80;;;19.70;73.20;;;;;;4919133;29;20916;-74
2022/04/29 11:30:50;;;;;;;7.70;4.30;;;;;;;;;;4938280;29;20438;-73
2022/04/29 11:33:22;;;;;;;6.23;4.67;;;19.80;77.30;;;;;;4938262;29;20415;-73
2022/04/29 11:35:51;;;;;;;7.47;4.50;;;;;;;;;;4938184;29;20918;-74
2022/04/29 11:38:16;;;;;;;6.00;3.90;;;18.70;78.00;;;;;;4941686;29;20926;-74
2022/04/29 11:40:42;;;;;;;7.33;3.97;;;;;;;;;;4937716;29;20470;-74
2022/04/29 11:43:10;;;;;;;7.03;3.90;;;18.50;75.30;;;;;;4938198;29;20175;-74
2022/04/29 11:45:37;;;;;;;4.37;3.83;;;;;;;;;;4938049;29;20232;-74
2022/04/29 11:48:06;;;;;;;10.30;4.10;;;17.90;78.90;;;;;;4937775;29;20412;-73
2022/04/29 11:50:36;;;;;;;9.07;4.80;;;18.00;76.60;;;;;;4937852;29;20916;-74
2022/04/29 11:53:09;;;;;;;5.77;4.20;;;18.30;78.90;;;;;;4937740;29;20430;-74
2022/04/29 11:55:36;;;;;;;15.23;4.70;;;19.00;77.60;;;;;;4937822;29;20987;-75
2022/04/29 11:58:03;;;;;;;8.30;4.40;;;18.60;74.00;;;;;;4937436;29;20435;-73
2022/04/29 12:00:33;;;;;;;7.50;4.80;;;19.30;79.60;;;;;;4920555;29;20463;-73
2022/04/29 12:03:00;;;;;;;10.03;4.83;;;19.60;77.30;;;;;;4937843;29;20480;-73
2022/04/29 12:05:30;;;;;;;13.93;5.20;;;18.70;77.00;;;;;;4937667;29;20426;-73
2022/04/29 12:08:03;;;;;;;5.97;4.23;;;18.50;80.40;;;;;;4937531;29;20519;-75
2022/04/29 12:10:31;;;;;;;8.10;4.20;;;19.00;84.30;;;;;;4937636;29;20427;-73
2022/04/29 12:12:57;;;;;;;8.73;4.77;;;19.60;78.10;;;;;;4938068;29;20759;-72
2022/04/29 12:15:30;;;;;;;7.57;3.83;;;19.70;78.10;;;;;;4937633;29;20428;-72
2022/04/29 12:18:00;;;;;;;6.70;4.40;;;19.80;75.00;;;;;;4937511;29;20419;-75
2022/04/29 12:20:26;;;;;;;8.97;4.33;;;19.70;74.30;;;;;;4937290;29;20546;-73
2022/04/29 12:22:52;;;;;;;9.57;4.00;;;19.20;73.10;;;;;;4937281;29;20974;-74
2022/04/29 12:25:22;;;;;;;11.03;4.30;;;;;;;;;;4939825;28;20423;-75
2022/04/29 12:28:11;;;;;;;8.47;4.47;;;19.50;77.20;;;;;;4931774;28;20203;-75
2022/04/29 12:36:07;;;;;;;9.13;4.00;;;;;;;;;;4937413;29;20439;-74
2022/04/29 12:38:34;;;;;;;10.60;3.70;;;18.50;72.50;;;;;;4936854;29;20399;-73
2022/04/29 12:41:21;;;;;;;6.90;4.03;;;;;;;;;;4936843;29;20471;-73
2022/04/29 12:43:47;;;;;;;9.77;4.63;;;;;;;;;;4937063;29;20475;-76
2022/04/29 12:46:20;;;;;;;5.40;4.00;;;19.40;73.30;;;;;;4937124;29;20516;-73
2022/04/29 12:48:47;;;;;;;6.83;4.27;;;;;;;;;;4940044;28;20183;-76
2022/04/29 12:51:28;;;;;;;6.20;4.63;;;;;;;;;;4931025;29;20442;-76
2022/04/29 12:53:54;;;;;;;7.67;4.03;;;;;;;;;;4932985;28;20788;-73
2022/04/29 12:56:25;;;;;;;8.37;4.17;;;18.40;77.10;;;;;;4960577;28;20417;-73
2022/04/29 12:58:52;;;;;;;10.97;4.60;;;;;;;;;;4962468;28;20954;-74
2022/04/29 13:01:17;;;;;;;7.73;4.30;;;19.40;79.40;;;;;;4938931;29;20986;-74
2022/04/29 13:03:52;;;;;;;7.10;4.03;;;19.30;73.60;;;;;;4936766;29;20463;-74
2022/04/29 13:06:20;;;;;;;10.00;4.70;;;19.20;74.60;;;;;;4936571;29;20263;-76
2022/04/29 13:08:50;;;;;;;12.13;4.50;;;19.50;74.70;;;;;;4936378;29;20919;-74
2022/04/29 13:11:19;;;;;;;6.83;3.60;;;20.20;72.60;;;;;;4936420;29;20498;-73
2022/04/29 13:13:45;;;;;;;14.17;4.00;;;19.60;74.20;;;;;;4936194;29;20415;-73
2022/04/29 13:16:11;;;;;;;6.03;3.80;;;19.60;74.00;;;;;;4938650;29;20529;-72
2022/04/29 13:18:36;;;;;;;7.80;4.20;;;19.30;73.70;;;;;;4952254;29;20701;-72
2022/04/29 13:21:07;;;;;;;8.43;4.07;;;;;;;;;;4944588;29;20219;-75
2022/04/29 13:23:34;;;;;;;7.40;4.10;;;;;;;;;;4954023;29;20183;-72
2022/04/29 13:26:01;;;;;;;7.47;3.70;;;;;;;;;;4951503;29;20430;-72
2022/04/29 13:28:27;;;;;;;11.00;4.30;;;18.80;76.80;;;;;;4954989;29;20417;-72
2022/04/29 13:30:53;;;;;;;6.37;4.27;;;18.70;74.90;;;;;;4946970;29;20466;-75
2022/04/29 13:33:19;;;;;;;7.63;5.10;;;;;;;;;;4950447;29;20202;-72
2022/04/29 13:35:44;;;;;;;4.87;3.20;;;;;;;;;;4955182;29;20809;-72
2022/04/29 13:38:11;;;;;;;10.73;4.60;;;18.40;72.20;;;;;;4950396;29;20196;-71
2022/04/29 13:40:37;;;;;;;12.47;4.90;;;;;;;;;;4952491;29;20206;-72
2022/04/29 13:43:04;;;;;;;6.70;3.83;;;;;;;;;;4951628;29;20893;-72
2022/04/29 13:45:30;;;;;;;8.40;3.63;;;18.50;77.60;;;;;;4954327;28;20410;-72
2022/04/29 13:47:56;;;;;;;7.47;4.73;;;;;;;;;;4954719;29;20418;-72
2022/04/29 13:50:22;;;;;;;4.80;3.27;;;18.90;76.20;;;;;;4954895;29;20410;-73
2022/04/29 13:55:32;;;;;;;7.03;4.20;;;18.50;74.20;;;;;;4955011;29;20238;-72
2022/04/29 13:57:57;;;;;;;7.17;4.00;;;18.50;76.60;;;;;;4954509;29;20407;-74
2022/04/29 14:00:23;;;;;;;9.97;3.60;;;;;;;;;;4954218;29;20610;-72
2022/04/29 14:02:50;;;;;;;4.67;3.37;;;;;;;;;;4954867;29;20644;-72
2022/04/29 14:05:16;;;;;;;6.73;3.43;;;;;;;;;;4954776;29;20171;-72
2022/04/29 14:07:43;;;;;;;5.33;3.50;;;18.20;77.80;;;;;;4954421;29;20461;-75
2022/04/29 14:10:09;;;;;;;6.90;3.47;;;18.30;78.90;;;;;;4954751;29;20421;-72
2022/04/29 14:12:35;;;;;;;5.50;3.63;;;18.30;74.10;;;;;;4954399;29;20934;-72
2022/04/29 14:15:02;;;;;;;7.37;3.80;;;18.10;75.50;;;;;;4954531;29;20422;-72
2022/04/29 14:17:28;;;;;;;4.90;3.70;;;18.00;77.80;;;;;;4946479;29;20425;-72
2022/04/29 14:19:53;;;;;;;7.27;3.30;;;17.80;76.60;;;;;;4954418;29;20498;-72
2022/04/29 14:22:19;;;;;;;8.53;3.60;;;17.60;75.80;;;;;;4954141;29;20642;-72
2022/04/29 14:24:45;;;;;;;7.97;3.33;;;;;;;;;;4954433;29;20175;-72
2022/04/29 14:27:12;;;;;;;5.00;3.57;;;17.50;74.40;;;;;;4936587;29;20195;-73
2022/04/29 14:29:38;;;;;;;11.67;4.70;;;17.50;74.20;;;;;;4950725;28;20473;-73
2022/04/29 14:32:04;;;;;;;5.47;4.10;;;17.10;77.20;;;;;;4954126;29;20492;-72
2022/04/29 14:34:32;;;;;;;6.90;4.30;;;17.00;78.20;;;;;;4954281;29;20195;-72
2022/04/29 14:36:58;;;;;;;6.90;3.83;;;17.00;80.30;;;;;;4954079;29;20577;-73
2022/04/29 14:39:23;;;;;;;7.07;3.60;;;16.80;81.40;;;;;;4954055;29;20429;-73
2022/04/29 14:41:50;;;;;;;12.33;4.47;;;;;;;;;;4936717;29;20833;-74
2022/04/29 14:44:15;;;;;;;13.03;4.33;;;16.70;82.60;;;;;;4954151;29;20550;-73
2022/04/29 14:46:41;;;;;;;8.20;4.40;;;16.80;83.70;;;;;;4954074;29;20421;-75
2022/04/29 14:49:07;;;;;;;12.47;4.60;;;;;;;;;;4953902;29;20183;-72
2022/04/29 14:51:33;;;;;;;8.23;4.07;;;;;;;;;;4953991;29;20810;-72
2022/04/29 14:53:59;;;;;;;9.43;4.67;;;;;;;;;;4954125;29;20469;-72
2022/04/29 14:56:25;;;;;;;9.20;5.10;;;;;;;;;;4936883;29;20178;-72
2022/04/29 14:58:51;;;;;;;6.70;4.47;;;;;;;;;;4953020;29;20407;-72
2022/04/29 15:01:17;;;;;;;5.70;4.10;;;;;;;;;;4936712;29;20517;-72
2022/04/29 15:03:45;;;;;;;9.87;4.40;;;;;;;;;;4953957;29;20214;-72
2022/04/29 15:06:10;;;;;;;9.33;5.00;;;15.80;86.50;;;;;;4954199;29;20418;-73
2022/04/29 15:08:36;;;;;;;7.30;4.10;;;15.70;89.00;;;;;;4953772;29;20415;-72
2022/04/29 15:16:30;;;;;;;8.20;4.60;;;15.80;86.90;;;;;;4953915;29;20937;-75
2022/04/29 15:18:56;;;;;;;9.13;4.70;;;15.70;86.20;;;;;;4953512;29;20442;-72
2022/04/29 15:21:21;;;;;;;5.50;4.30;;;15.70;88.90;;;;;;4953822;29;20220;-72
2022/04/29 15:23:46;;;;;;;8.23;4.10;;;15.50;88.30;;;;;;4953714;29;20191;-72
2022/04/29 15:26:12;;;;;;;10.10;4.77;;;;;;;;;;4953652;29;20206;-72
2022/04/29 15:28:38;;;;;;;11.37;4.20;;;;;;;;;;4953512;29;20213;-72
2022/04/29 15:31:05;;;;;;;6.33;3.97;;;;;;;;;;4953497;29;20211;-72
2022/04/29 15:33:31;;;;;;;7.47;4.60;;;;;;;;;;4953703;29;20254;-72
2022/04/29 15:35:56;;;;;;;22.53;4.83;;;15.90;86.50;;;;;;4953589;29;20509;-72
2022/04/29 15:38:22;;;;;;;9.30;4.83;;;15.80;85.20;;;;;;4953325;29;20422;-72
2022/04/29 15:40:53;;;;;;;7.07;4.20;;;;;;;;;;4953434;29;20211;-72
2022/04/29 15:43:20;;;;;;;7.50;4.27;;;;;;;;;;4953709;29;20451;-72
2022/04/29 15:45:50;;;;;;;9.40;4.20;;;15.40;90.10;;;;;;4953691;29;20422;-72
2022/04/29 15:48:17;;;;;;;8.00;4.90;;;15.30;89.50;;;;;;4934699;29;20473;-72
2022/04/29 15:50:46;;;;;;;6.13;4.93;;;;;;;;;;4947452;29;20830;-71
2022/04/29 15:53:13;;;;;;;9.10;4.80;;;;;;;;;;4953256;29;20434;-71
2022/04/29 15:55:41;;;;;;;11.13;5.73;;;15.20;90.00;;;;;;4943691;29;20418;-70
2022/04/29 15:58:09;;;;;;;18.13;8.70;;;15.30;90.40;;;;;;4939136;29;20439;-70
2022/04/29 16:00:35;;;;;;;10.70;7.17;;;15.30;91.10;;;;;;4953139;29;20830;-71
2022/04/29 16:03:01;;;;;;;9.80;5.03;;;15.40;87.70;;;;;;4941026;29;20519;-71
2022/04/29 16:05:26;;;;;;;8.17;5.80;;;15.50;89.70;;;;;;4941264;29;20472;-70
2022/04/29 16:07:52;;;;;;;11.43;4.70;;;15.60;88.40;;;;;;4923461;29;20194;-71
2022/04/29 16:10:18;;;;;;;12.13;5.07;;;;;;;;;;4952815;28;20531;-71
2022/04/29 16:12:44;;;;;;;6.63;4.63;;;;;;;;;;4949723;29;20226;-71
2022/04/29 16:15:10;;;;;;;8.63;5.43;;;;;;;;;;4956631;29;20921;-71
2022/04/29 16:49:12;;;;;;;7.47;4.20;;;15.40;89.90;;;;;;5563589;23;20491;-76
2022/04/29 16:51:39;;;;;;;19.33;4.50;;;;;;;;;;4960633;28;20491;-72
2022/04/29 16:54:06;;;;;;;6.30;3.80;;;;;;;;;;4959417;28;20413;-72
2022/04/29 16:58:42;;;;;;;8.07;4.13;;;15.30;92.50;;;;;;4949949;28;20446;-73
2022/04/29 16:59:17;;;;;;;6.10;4.33;;;15.20;93.80;;;;;;4952306;28;20477;-72
2022/04/29 17:01:43;;;;;;;8.47;4.23;;;;;;;;;;4948664;28;20483;-72
2022/04/29 17:04:08;;;;;;;7.43;4.10;;;15.20;89.50;;;;;;4919411;29;20183;-72
2022/04/29 17:06:34;;;;;;;10.10;4.60;;;15.30;87.20;;;;;;4919387;29;20424;-72
2022/04/29 17:08:59;;;;;;;8.50;4.07;;;15.40;88.40;;;;;;4936322;29;20183;-71
2022/04/29 17:11:25;;;;;;;5.83;4.90;;;15.30;86.10;;;;;;4943616;29;20253;-72
2022/04/29 17:13:50;;;;;;;7.27;4.37;;;15.20;85.60;;;;;;4955304;29;20203;-72
2022/04/29 17:16:19;;;;;;;7.43;4.67;;;;;;;;;;4955128;29;20179;-74
2022/04/29 17:18:44;;;;;;;6.73;4.90;;;14.80;86.30;;;;;;4954908;29;20181;-74
2022/04/29 17:21:10;;;;;;;10.23;5.30;;;;;;;;;;4953578;28;20462;-75
2022/04/29 17:23:36;;;;;;;11.70;3.80;;;14.50;87.90;;;;;;4955367;29;20666;-75
2022/04/29 17:26:03;;;;;;;7.47;4.70;;;14.40;87.80;;;;;;4955424;29;20175;-74
2022/04/29 17:28:29;;;;;;;6.30;4.23;;;14.30;87.80;;;;;;4955253;29;20175;-75
2022/04/29 17:30:55;;;;;;;8.47;4.00;;;;;;;;;;4925059;29;20846;-76
2022/04/29 17:33:22;;;;;;;6.40;4.40;;;14.20;89.20;;;;;;4936047;29;20183;-76
2022/04/29 17:35:49;;;;;;;6.30;4.17;;;14.00;90.70;;;;;;4935864;29;20556;-75
2022/04/29 17:38:17;;;;;;;9.37;4.10;;;;;;;;;;4935837;29;20423;-75
2022/04/29 17:43:28;;;;;;;10.43;4.33;;;;;;;;;;4935822;29;20471;-75
2022/04/29 17:45:54;;;;;;;8.33;4.47;;;13.70;90.30;;;;;;4935945;28;20769;-76
2022/04/29 17:48:20;;;;;;;9.07;4.60;;;;;;;;;;4944513;29;20475;-76
2022/04/29 17:50:46;;;;;;;14.13;5.20;;;;;;;;;;4936493;29;20219;-76
2022/04/29 17:53:12;;;;;;;6.33;4.40;;;13.30;92.90;;;;;;4935784;29;20175;-76
2022/04/29 17:55:38;;;;;;;11.37;4.50;;;13.00;93.10;;;;;;4936076;29;20419;-77
2022/04/29 17:58:07;;;;;;;10.17;4.67;;;;;;;;;;4935873;29;20575;-76
2022/04/29 18:00:34;;;;;;;7.80;4.80;;;;;;;;;;4919896;28;21012;-76
2022/04/29 18:03:00;;;;;;;10.90;4.60;;;;;;;;;;4953564;28;20462;-76
2022/04/29 18:05:27;;;;;;;6.80;4.57;;;;;;;;;;4955288;28;20419;-72
2022/04/29 18:07:54;;;;;;;6.60;5.60;;;12.00;96.30;;;;;;4923491;29;20439;-72
2022/04/29 18:10:23;;;;;;;10.03;5.33;;;11.80;96.30;;;;;;4935112;29;20425;-75
2022/04/29 18:12:48;;;;;;;6.67;4.23;;;11.50;96.30;;;;;;4935305;29;20427;-74
2022/04/29 18:15:13;;;;;;;8.73;4.80;;;11.30;96.30;;;;;;4935326;29;20423;-72
2022/04/29 18:17:39;;;;;;;6.33;4.23;;;;;;;;;;4935961;29;20195;-72
2022/04/29 18:20:06;;;;;;;11.33;5.07;;;10.90;96.30;;;;;;4954483;29;20181;-71
2022/04/29 18:22:32;;;;;;;12.63;6.90;;;;;;;;;;4954131;28;20470;-71
2022/04/29 18:24:58;;;;;;;6.33;5.43;;;10.50;96.30;;;;;;4954316;29;20410;-70
2022/04/29 18:27:24;;;;;;;8.13;5.13;;;;;;;;;;4954044;29;20458;-74
2022/04/29 18:29:50;;;;;;;9.67;5.20;;;10.20;96.30;;;;;;4954143;29;20187;-70
2022/04/29 18:32:16;;;;;;;9.17;5.00;;;10.10;96.30;;;;;;4953809;28;20485;-70
2022/04/29 18:34:42;;;;;;;10.80;5.37;;;10.00;96.30;;;;;;4954100;29;20635;-72
2022/04/29 18:37:07;;;;;;;11.47;5.73;;;;;;;;;;4953892;29;20171;-72
2022/04/29 18:39:33;;;;;;;15.73;4.90;;;9.80;96.30;;;;;;4953841;29;20422;-71
2022/04/29 18:42:01;;;;;;;6.93;5.57;;;9.70;96.30;;;;;;4953827;29;20474;-73
2022/04/29 18:44:26;;;;;;;8.33;5.53;;;9.60;96.30;;;;;;4953967;29;20190;-70
2022/04/29 18:46:55;;;;;;;11.10;6.00;;;9.50;96.30;;;;;;4953832;29;20407;-70
2022/04/29 18:49:22;;;;;;;12.50;6.17;;;9.30;96.30;;;;;;4953780;29;20415;-69
2022/04/29 18:51:48;;;;;;;12.20;6.50;;;;;;;;;;4953944;29;20525;-70
2022/04/29 18:54:13;;;;;;;9.50;5.97;;;;;;;;;;4953951;29;20502;-70